Clancy, MT

4:47 PM MDT on July 04, 2015 (GMT -0600)
Saddle Mountain | | Change Station
CLOSE
Current Station
Personal Weather Station
Location: Montana City, MT
Elevation: 4659 ft
Nearby Weather Stations

Elev 4659 ft 46.52 °N, 111.92 °W | Updated 3 seconds ago

Clear
Clear
94.5 °F
Feels Like 90 °F
N
4.0
Wind Variable Wind from SSW
Gusts 6.0 mph

Today
High -- | Low -- °F
--% Chance of Precip.
Yesterday
High -- | Low -- °F
Precip. -- in
5:40 AM 9:23 PM
Waning Gibbous, 89% visible
Pressure 29.70 in
Visibility 10.0 miles
Clouds Clear
Heat Index 90 °F
Dew Point 34 °F
Humidity 12%
Rainfall 0.00 in
Snow Depth Not available.
UV 9 out of 12
Pollen 4.90 out of 12
Air Quality Not available.
Flu Activity Not available.
METAR KHLN 042153Z 29011G15KT 10SM CLR 36/02 A2980 RMK AO2 SLP058 T03610022

More Conditions Fewer Conditions

Pressure 29.70 in
Visibility 10.0 miles
Clouds Clear
Heat Index 90 °F
Dew Point 34 °F
Humidity 12%
Rainfall 0.00 in
Snow Depth Not available.
UV 9 out of 12
Pollen 4.90 out of 12
Air Quality Not available.
Flu Activity Not available.
METAR KHLN 042153Z 29011G15KT 10SM CLR 36/02 A2980 RMK AO2 SLP058 T03610022

More Conditions Fewer Conditions

10-Day Weather Forecast

×

Almanac

Astronomy

Jul. 04, 2015 Rise Set
Actual Time
Civil Twilight
Nautical Twilight
Astronomical Twilight
Moon
Length of Visible Light
Length of Day
Tomorrow will be .
, % of the Moon is Illuminated

Today's Extremes

State Highs State Lows

Community

WunderPhotos

Upload Photos

1,835,105 photos uploaded!

WunderBlogs® & News

Nearby

Air Quality

  Air Quality AQ Index Pollutant
Not available.

Snow Depth

Station Depth Elevation

Earthquake Activity

City Distance Mag. Time & Date
Minimum magnitude displayed is 2.5.

Coastal Water Temperatures

Place Temperature

Stations

Nearby Weather Stations

Station Location Temp. Windchill Dew Point Humidity Wind Precip. Elev Updated Type